Time;durP1;ratioP1;P1;durP2;ratioP2;P2;SDS_P1;SDS_P2;PMS_P1;PMS_P2;Temp;Humidity;BMP_temperature;BMP_pressure;BME280_temperature;BME280_humidity;BME280_pressure;Samples;Min_cycle;Max_cycle;Signal;HPM_P1;HPM_P2
2023/09/30 00:00:43;;;;;;;;;12.75;8.75;;;;;19.26;43.30;102101.94;5060429;28;46670;-61
2023/09/30 00:03:10;;;;;;;;;13.75;11.75;;;;;19.21;43.61;102102.06;5060011;28;45462;-61
2023/09/30 00:05:36;;;;;;;;;12.25;11.25;;;;;19.20;43.69;102100.28;5060430;28;45324;-61
2023/09/30 00:08:02;;;;;;;;;13.00;9.00;;;;;19.20;43.71;102112.75;5059975;28;45366;-61
2023/09/30 00:10:27;;;;;;;;;10.75;10.00;;;;;19.18;43.61;102115.44;5041690;28;48126;-61
2023/09/30 00:12:52;;;;;;;;;10.75;8.50;;;;;19.13;43.52;102110.25;5060208;28;45241;-61
2023/09/30 00:15:18;;;;;;;;;8.00;8.00;;;;;19.14;43.79;102119.13;5060040;28;48708;-61
2023/09/30 00:17:43;;;;;;;;;7.75;7.75;;;;;19.12;43.78;102121.84;5060040;28;45438;-61
2023/09/30 00:20:09;;;;;;;;;11.00;8.25;;;;;19.08;43.68;102114.84;5060213;28;46112;-61
2023/09/30 00:22:34;;;;;;;;;9.50;8.25;;;;;19.08;43.69;102125.50;5060121;28;45257;-61
2023/09/30 00:25:00;;;;;;;;;11.75;8.75;;;;;19.07;44.13;102121.09;5060111;28;45513;-61
2023/09/30 00:27:25;;;;;;;;;11.75;9.50;;;;;19.04;43.78;102121.16;5059940;28;45402;-61
2023/09/30 00:29:51;;;;;;;;;11.00;9.25;;;;;18.95;43.94;102111.63;5060138;28;45214;-61
2023/09/30 00:32:16;;;;;;;;;9.50;9.00;;;;;18.98;43.72;102127.56;5059919;28;45363;-61
2023/09/30 00:34:42;;;;;;;;;14.50;11.75;;;;;18.94;43.97;102122.34;5042030;28;45255;-61
2023/09/30 00:37:08;;;;;;;;;11.75;9.75;;;;;18.92;44.15;102118.88;5059987;28;45533;-61
2023/09/30 00:39:33;;;;;;;;;8.50;8.00;;;;;18.91;43.98;102125.09;5059692;28;52780;-61
2023/09/30 00:41:59;;;;;;;;;14.75;9.50;;;;;18.89;44.07;102122.41;5059629;28;45332;-61
2023/09/30 00:44:25;;;;;;;;;9.75;9.00;;;;;18.87;44.18;102120.72;5059990;28;45343;-61
2023/09/30 00:46:51;;;;;;;;;8.50;8.50;;;;;18.88;43.91;102136.69;5051794;28;45397;-61
2023/09/30 00:49:18;;;;;;;;;6.75;6.50;;;;;18.87;44.03;102131.38;5059522;28;46316;-61
2023/09/30 00:51:45;;;;;;;;;10.50;8.00;;;;;18.85;44.57;102126.09;5059819;28;45235;-61
2023/09/30 00:54:10;;;;;;;;;12.75;8.00;;;;;18.82;44.07;102111.06;5055169;28;45226;-61
2023/09/30 00:56:43;;;;;;;;;9.50;9.50;;;;;18.80;44.24;102115.59;5057546;28;45500;-61
2023/09/30 00:59:08;;;;;;;;;11.75;10.00;;;;;18.79;44.02;102121.81;5062560;28;45367;-61
2023/09/30 01:01:34;;;;;;;;;13.50;10.00;;;;;18.76;44.38;102111.25;5063347;28;45158;-61
2023/09/30 01:04:00;;;;;;;;;12.75;11.00;;;;;18.75;44.64;102104.16;5062455;28;45414;-61
2023/09/30 01:06:26;;;;;;;;;14.75;12.50;;;;;18.77;44.50;102104.13;5062923;28;45242;-61
2023/09/30 01:08:52;;;;;;;;;9.50;9.00;;;;;18.74;44.48;102088.22;5044238;28;46830;-61
2023/09/30 01:11:17;;;;;;;;;11.25;9.00;;;;;18.72;44.30;102096.28;5042712;28;45384;-61
2023/09/30 01:13:44;;;;;;;;;13.25;9.75;;;;;18.72;44.35;102122.91;5063039;28;45400;-61
2023/09/30 01:16:10;;;;;;;;;11.25;9.75;;;;;18.70;44.51;102123.84;5063022;28;45637;-61
2023/09/30 01:18:36;;;;;;;;;9.25;9.25;;;;;18.66;44.78;102123.06;5062466;28;45912;-61
2023/09/30 01:21:04;;;;;;;;;14.25;11.50;;;;;18.61;44.71;102112.50;5044512;28;45403;-61
2023/09/30 01:23:31;;;;;;;;;12.00;9.75;;;;;18.61;44.59;102109.00;5063172;28;45232;-61
2023/09/30 01:25:56;;;;;;;;;10.00;7.25;;;;;18.59;44.69;102118.78;5061275;28;45408;-61
2023/09/30 01:28:23;;;;;;;;;10.50;8.50;;;;;18.57;44.88;102137.47;5062872;28;45365;-61
2023/09/30 01:30:48;;;;;;;;;11.25;10.25;;;;;18.55;44.54;102144.63;5062942;28;45532;-61
2023/09/30 01:33:14;;;;;;;;;8.25;8.25;;;;;18.55;45.09;102139.28;5061840;28;45413;-61
2023/09/30 01:35:39;;;;;;;;;13.00;8.75;;;;;18.52;44.83;102136.72;5062572;28;45281;-61
2023/09/30 01:38:04;;;;;;;;;15.00;10.50;;;;;18.51;45.07;102145.63;5044636;28;47289;-61
2023/09/30 01:40:30;;;;;;;;;10.25;8.00;;;;;18.48;45.09;102127.06;5062303;28;47663;-61
2023/09/30 01:42:56;;;;;;;;;10.50;9.25;;;;;18.48;44.79;102127.94;5062875;28;45452;-61
2023/09/30 01:45:21;;;;;;;;;8.25;7.00;;;;;18.43;45.21;102119.19;5068961;28;45339;-61
2023/09/30 01:47:47;;;;;;;;;10.00;10.00;;;;;18.44;44.99;102112.06;5062540;28;45285;-61
2023/09/30 01:50:12;;;;;;;;;10.50;8.75;;;;;18.40;45.17;102107.75;5044490;28;45672;-61
2023/09/30 01:52:37;;;;;;;;;8.75;7.75;;;;;18.41;45.26;102113.03;5062566;28;45314;-61
2023/09/30 01:55:03;;;;;;;;;11.75;9.50;;;;;18.40;45.32;102102.44;5057715;28;45371;-61
2023/09/30 01:57:28;;;;;;;;;8.75;8.00;;;;;18.38;45.23;102097.16;5060427;28;46117;-61
2023/09/30 01:59:54;;;;;;;;;8.50;8.25;;;;;18.37;45.28;102103.38;5062070;28;54848;-61
2023/09/30 02:02:19;;;;;;;;;12.00;8.25;;;;;18.34;45.52;102103.47;5062625;28;45372;-61
2023/09/30 02:04:44;;;;;;;;;11.00;6.50;;;;;18.35;45.25;102099.88;5062422;28;45258;-61
2023/09/30 02:07:10;;;;;;;;;8.75;8.50;;;;;18.33;45.61;102099.94;5062377;28;45253;-61
2023/09/30 02:09:36;;;;;;;;;8.25;8.25;;;;;18.30;45.47;102089.38;5061078;28;45333;-61
2023/09/30 02:12:02;;;;;;;;;7.50;3.50;;;;;18.27;45.54;102091.22;5062400;28;45252;-61
2023/09/30 02:14:27;;;;;;;;;9.00;7.75;;;;;18.21;45.92;102089.59;5062068;28;45444;-61
2023/09/30 02:16:52;;;;;;;;;9.75;8.00;;;;;18.26;45.40;102105.44;5062134;28;46447;-61
2023/09/30 02:19:19;;;;;;;;;9.25;9.00;;;;;18.24;45.61;102101.94;5043959;28;45352;-61
2023/09/30 02:21:45;;;;;;;;;10.50;8.00;;;;;18.22;45.42;102098.47;5062433;28;45522;-61
2023/09/30 02:24:10;;;;;;;;;9.25;8.00;;;;;18.19;45.67;102100.28;5062065;28;45368;-61
2023/09/30 02:26:35;;;;;;;;;10.00;8.75;;;;;18.19;45.56;102105.59;5061660;28;46101;-61
2023/09/30 02:29:00;;;;;;;;;15.00;8.25;;;;;18.14;45.68;102096.84;5062035;28;45320;-60
2023/09/30 02:31:26;;;;;;;;;8.75;6.50;;;;;18.08;45.56;102099.66;5044172;28;45349;-61
2023/09/30 02:33:51;;;;;;;;;10.00;7.75;;;;;18.16;45.79;102108.34;5061917;28;45309;-61
2023/09/30 02:36:17;;;;;;;;;7.25;7.25;;;;;18.14;45.66;102114.63;5061794;28;45305;-61
2023/09/30 02:38:43;;;;;;;;;8.25;7.00;;;;;18.14;45.81;102112.81;5061892;28;45219;-61
2023/09/30 02:41:08;;;;;;;;;6.50;5.75;;;;;18.12;45.92;102106.63;5060588;28;45186;-61
2023/09/30 02:43:34;;;;;;;;;8.00;8.00;;;;;18.09;45.81;102098.75;5061935;28;45192;-60
2023/09/30 02:45:59;;;;;;;;;9.00;8.00;;;;;18.07;45.77;102092.59;5067895;28;45992;-61
2023/09/30 02:48:25;;;;;;;;;9.00;7.25;;;;;18.07;45.73;102095.25;5061839;28;45402;-61
2023/09/30 02:50:50;;;;;;;;;6.75;6.75;;;;;18.06;46.22;102093.50;5043777;28;45171;-61
2023/09/30 02:53:15;;;;;;;;;8.00;7.75;;;;;18.03;45.80;102094.44;5057760;28;45183;-61
2023/09/30 02:55:41;;;;;;;;;10.00;7.25;;;;;18.03;45.76;102090.91;5059698;28;45265;-61
2023/09/30 02:58:10;;;;;;;;;7.00;6.00;;;;;17.98;45.91;102098.13;5058449;28;45257;-61
2023/09/30 03:00:37;;;;;;;;;9.00;7.50;;;;;18.00;45.76;102098.97;5043638;28;45389;-61
2023/09/30 03:03:03;;;;;;;;;5.25;3.00;;;;;17.99;46.06;102100.75;5061616;28;45218;-61
2023/09/30 03:05:32;;;;;;;;;8.25;6.00;;;;;17.96;45.55;102095.53;5061129;28;45316;-61
2023/09/30 03:07:57;;;;;;;;;8.75;5.50;;;;;17.95;46.17;102106.16;5061481;28;45572;-61
2023/09/30 03:10:26;;;;;;;;;8.25;7.50;;;;;17.95;46.20;102117.69;5061135;28;45445;-61
2023/09/30 03:12:55;;;;;;;;;9.00;6.00;;;;;17.94;45.89;102128.38;5061035;28;45416;-61
2023/09/30 03:15:21;;;;;;;;;7.25;6.75;;;;;17.95;46.18;102133.66;5061219;28;46218;-61
2023/09/30 03:17:48;;;;;;;;;7.50;5.25;;;;;17.92;46.38;102125.69;5061473;28;45159;-61
2023/09/30 03:20:14;;;;;;;;;9.00;8.00;;;;;17.91;46.17;102123.97;5060931;28;45355;-61
2023/09/30 03:22:42;;;;;;;;;7.75;7.25;;;;;17.90;46.18;102116.00;5060917;28;45313;-61
2023/09/30 03:25:10;;;;;;;;;9.25;7.50;;;;;17.90;46.16;102123.97;5042772;28;48179;-61
2023/09/30 03:27:36;;;;;;;;;10.00;9.00;;;;;17.90;46.50;102131.97;5060770;28;45300;-61
2023/09/30 03:30:05;;;;;;;;;12.50;10.00;;;;;17.90;46.22;102127.53;5061074;28;45237;-60
2023/09/30 03:32:33;;;;;;;;;8.50;7.00;;;;;17.90;46.34;102131.97;5043076;28;45385;-60
2023/09/30 03:35:00;;;;;;;;;7.25;5.25;;;;;17.84;46.31;102130.34;5060684;28;45425;-61
2023/09/30 03:37:26;;;;;;;;;7.75;5.25;;;;;17.89;46.33;102141.75;5060820;28;45444;-61
2023/09/30 03:39:54;;;;;;;;;7.25;6.00;;;;;17.86;46.43;102132.03;5061165;28;45407;-61
2023/09/30 03:42:20;;;;;;;;;6.00;5.75;;;;;17.85;46.55;102130.28;5060531;28;45343;-61
2023/09/30 03:44:45;;;;;;;;;6.50;6.00;;;;;17.82;46.34;102138.34;5044802;28;47456;-61
2023/09/30 03:47:11;;;;;;;;;10.25;8.00;;;;;17.83;46.37;102137.41;5064022;28;45422;-61
2023/09/30 03:49:38;;;;;;;;;8.75;8.25;;;;;17.82;46.56;102149.00;5042532;28;45533;-61
2023/09/30 03:52:04;;;;;;;;;10.75;7.75;;;;;17.80;46.63;102142.81;5060748;28;45233;-61
2023/09/30 03:54:29;;;;;;;;;10.75;7.50;;;;;17.79;46.58;102150.84;5055313;28;46230;-61
2023/09/30 03:56:54;;;;;;;;;7.50;6.50;;;;;17.67;46.47;102130.69;5057802;28;47000;-61
2023/09/30 03:59:19;;;;;;;;;8.50;7.25;;;;;17.71;46.73;102130.59;5060814;28;45280;-61
2023/09/30 04:01:47;;;;;;;;;7.50;6.00;;;;;17.71;46.79;102132.41;5060515;28;45731;-60
2023/09/30 04:04:12;;;;;;;;;7.25;5.25;;;;;17.69;46.97;102128.88;5060634;28;46314;-61
2023/09/30 04:06:38;;;;;;;;;9.00;6.75;;;;;17.68;46.81;102129.78;5040933;28;45534;-61
2023/09/30 04:09:09;;;;;;;;;9.75;8.00;;;;;17.69;46.74;102139.53;5060744;28;45261;-61
2023/09/30 04:11:35;;;;;;;;;5.50;2.75;;;;;17.66;46.83;102126.28;5058977;28;45760;-61
2023/09/30 04:14:01;;;;;;;;;8.75;4.25;;;;;17.61;46.80;102113.13;5060335;28;45373;-61
2023/09/30 04:16:28;;;;;;;;;7.00;7.00;;;;;17.59;46.54;102109.59;5060185;28;45269;-60
2023/09/30 04:18:55;;;;;;;;;7.25;6.25;;;;;17.60;46.75;102107.84;5042523;28;45398;-61
2023/09/30 04:21:20;;;;;;;;;7.50;6.00;;;;;17.60;46.73;102103.38;5051020;28;45490;-61
2023/09/30 04:23:46;;;;;;;;;7.00;7.00;;;;;17.59;46.76;102091.00;5060164;28;45484;-61
2023/09/30 04:26:11;;;;;;;;;8.75;7.75;;;;;17.55;46.70;102079.56;5059721;28;45443;-61
2023/09/30 04:28:37;;;;;;;;;10.50;5.75;;;;;17.56;46.89;102080.44;5060380;28;45490;-61
2023/09/30 04:31:03;;;;;;;;;13.00;8.25;;;;;17.55;46.88;102079.56;5060173;28;45933;-60
2023/09/30 04:33:28;;;;;;;;;11.50;7.50;;;;;17.54;46.88;102077.81;5059336;28;45967;-61
2023/09/30 04:35:54;;;;;;;;;11.50;9.50;;;;;17.54;46.92;102079.59;5059801;28;45232;-61
2023/09/30 04:38:19;;;;;;;;;8.50;7.25;;;;;17.52;47.02;102081.41;5058985;28;45659;-61
2023/09/30 04:40:48;;;;;;;;;6.50;5.75;;;;;17.50;46.91;102062.84;5059015;28;45320;-60
2023/09/30 04:43:14;;;;;;;;;7.00;6.00;;;;;17.44;47.08;102059.47;5038354;28;47205;-60
2023/09/30 04:45:39;;;;;;;;;7.00;6.00;;;;;17.46;47.09;102066.50;5063447;28;45403;-60
2023/09/30 04:48:05;;;;;;;;;10.75;8.00;;;;;17.45;46.78;102067.38;5060046;28;45324;-60
2023/09/30 04:50:30;;;;;;;;;6.00;6.00;;;;;17.45;46.99;102074.50;5059902;28;45333;-60
2023/09/30 04:52:57;;;;;;;;;10.00;7.50;;;;;17.40;47.04;102076.38;5058610;28;46326;-60
2023/09/30 04:55:23;;;;;;;;;9.00;6.75;;;;;17.43;47.24;102100.22;5056097;28;45233;-61
2023/09/30 04:57:50;;;;;;;;;10.75;8.00;;;;;17.41;47.04;102105.56;5039340;28;45279;-61
2023/09/30 05:00:19;;;;;;;;;11.75;9.50;;;;;17.38;46.98;102093.22;5059624;28;45221;-60
2023/09/30 05:02:45;;;;;;;;;9.00;8.00;;;;;17.39;46.96;102104.72;5059601;28;46853;-60
2023/09/30 05:05:10;;;;;;;;;8.75;7.25;;;;;17.30;47.27;102094.31;5059581;28;45345;-60
2023/09/30 05:07:36;;;;;;;;;13.00;10.25;;;;;17.36;47.24;102107.47;5059924;28;45247;-60
2023/09/30 05:10:10;;;;;;;;;7.25;7.25;;;;;17.34;46.86;102103.94;5041268;28;45298;-61
2023/09/30 05:12:35;;;;;;;;;12.50;9.50;;;;;17.31;47.06;102096.06;5058255;28;46327;-60
2023/09/30 05:15:01;;;;;;;;;9.25;8.00;;;;;17.33;47.04;102088.91;5059396;28;45526;-60
2023/09/30 05:17:28;;;;;;;;;6.75;6.00;;;;;17.27;46.98;102081.97;5059811;28;45329;-61
2023/09/30 05:19:53;;;;;;;;;9.25;8.75;;;;;17.29;47.15;102087.22;5059358;28;45237;-61
2023/09/30 05:22:23;;;;;;;;;11.00;8.00;;;;;17.27;47.24;102097.00;5059332;28;46992;-61
2023/09/30 05:24:50;;;;;;;;;9.75;9.25;;;;;17.28;47.09;102106.72;5059432;28;45281;-61
2023/09/30 05:27:15;;;;;;;;;8.75;7.25;;;;;17.28;47.61;102112.03;5059109;28;45347;-61
2023/09/30 05:29:41;;;;;;;;;7.00;7.00;;;;;17.28;47.15;102106.72;5059032;28;45321;-61
2023/09/30 05:32:06;;;;;;;;;8.75;7.00;;;;;17.26;47.28;102106.75;5059017;28;52395;-61
2023/09/30 05:34:32;;;;;;;;;8.00;5.25;;;;;17.25;47.25;102104.16;5059108;28;45420;-61
2023/09/30 05:36:58;;;;;;;;;9.00;7.75;;;;;17.27;47.29;102108.53;5059379;28;45467;-61
2023/09/30 05:39:25;;;;;;;;;9.50;9.25;;;;;17.18;47.42;102098.97;5059134;28;45530;-61
2023/09/30 05:41:50;;;;;;;;;7.50;7.50;;;;;17.25;47.34;102117.44;5056254;28;46280;-61
2023/09/30 05:44:16;;;;;;;;;7.25;7.00;;;;;17.24;47.52;102121.00;5059244;28;45167;-59
2023/09/30 05:46:43;;;;;;;;;7.50;5.00;;;;;17.22;47.32;102124.53;5068624;28;45299;-61
2023/09/30 05:49:13;;;;;;;;;19.75;17.00;;;;;17.21;47.36;102125.44;5062651;28;45387;-61
2023/09/30 05:51:39;;;;;;;;;10.25;9.00;;;;;17.22;47.58;102126.34;5062590;28;46098;-61
2023/09/30 05:54:05;;;;;;;;;43.25;35.50;;;;;17.16;47.42;102124.66;5039024;28;45338;-62
2023/09/30 05:56:30;;;;;;;;;13.00;10.50;;;;;17.19;47.44;102119.31;5060983;28;45716;-62
2023/09/30 05:58:56;;;;;;;;;6.25;6.00;;;;;17.16;47.69;102115.84;5061442;28;45494;-64
2023/09/30 06:01:22;;;;;;;;;8.00;6.00;;;;;17.09;47.38;102096.47;5062335;28;46058;-73
2023/09/30 06:03:47;;;;;;;;;9.50;8.00;;;;;17.15;47.80;102095.50;5062433;28;45606;-62
2023/09/30 06:06:16;;;;;;;;;2.25;1.00;;;;;17.13;47.30;102098.19;5061869;28;45404;-62
2023/09/30 06:08:43;;;;;;;;;6.75;5.75;;;;;17.13;47.41;102106.16;5062322;28;45332;-62
2023/09/30 06:11:16;;;;;;;;;8.25;7.25;;;;;17.12;47.72;102108.81;5061588;28;47181;-62
2023/09/30 06:13:42;;;;;;;;;10.00;7.75;;;;;17.09;47.64;102100.91;5061974;28;45557;-60
2023/09/30 06:16:07;;;;;;;;;10.25;8.00;;;;;17.08;47.52;102088.53;5062310;28;45328;-60
2023/09/30 06:18:32;;;;;;;;;8.00;6.25;;;;;17.09;47.69;102098.25;5061941;28;45480;-59
2023/09/30 06:20:58;;;;;;;;;8.75;7.00;;;;;17.09;47.58;102104.44;5062190;28;45432;-61
2023/09/30 06:23:23;;;;;;;;;6.25;5.00;;;;;17.11;47.88;102113.25;5062313;28;45167;-59
2023/09/30 06:25:48;;;;;;;;;8.00;7.00;;;;;17.12;47.50;102100.84;5061600;28;45305;-60
2023/09/30 06:28:13;;;;;;;;;8.50;6.75;;;;;17.12;47.78;102103.50;5061855;28;54095;-59
2023/09/30 06:30:41;;;;;;;;;9.00;9.00;;;;;17.13;47.67;102113.22;5043512;28;59365;-61
2023/09/30 06:33:07;;;;;;;;;8.25;8.25;;;;;17.13;47.92;102122.09;5062010;28;45308;-61
2023/09/30 06:35:38;;;;;;;;;7.50;6.75;;;;;17.13;47.84;102119.44;5061627;28;45470;-61
2023/09/30 06:38:06;;;;;;;;;7.75;6.50;;;;;17.14;47.64;102113.19;5043810;28;45464;-61
2023/09/30 06:40:32;;;;;;;;;8.50;5.00;;;;;17.18;47.78;102114.00;5061138;28;47430;-63
2023/09/30 06:42:57;;;;;;;;;5.75;5.75;;;;;17.15;47.88;102117.59;5061707;28;45228;-72
2023/09/30 06:45:23;;;;;;;;;7.25;7.25;;;;;17.14;47.80;102128.25;5067176;28;45468;-73
2023/09/30 06:47:49;;;;;;;;;9.25;8.25;;;;;17.17;47.79;102130.88;5061997;28;45375;-73
2023/09/30 06:50:17;;;;;;;;;7.75;6.50;;;;;17.19;47.78;102143.22;5061545;28;46755;-68
2023/09/30 06:52:49;;;;;;;;;8.50;7.75;;;;;17.26;47.98;102156.34;5061501;28;45308;-63
2023/09/30 06:55:14;;;;;;;;;8.50;8.50;;;;;17.28;48.00;102141.25;5060732;28;45377;-63
2023/09/30 06:57:43;;;;;;;;;8.00;7.75;;;;;17.27;47.90;102140.41;5041203;28;45784;-63
2023/09/30 07:00:11;;;;;;;;;8.00;7.75;;;;;17.32;48.10;102148.25;5061235;28;45435;-63
2023/09/30 07:02:37;;;;;;;;;8.50;7.50;;;;;17.33;48.34;102150.00;5043090;28;46081;-63
2023/09/30 07:05:08;;;;;;;;;8.25;6.00;;;;;17.38;48.23;102156.09;5061436;28;45644;-63
2023/09/30 07:07:33;;;;;;;;;8.50;8.00;;;;;17.38;48.34;102149.03;5061509;28;45186;-76
2023/09/30 07:09:58;;;;;;;;;9.50;9.25;;;;;17.42;47.96;102154.25;5039678;28;46956;-75
2023/09/30 07:12:24;;;;;;;;;8.00;7.50;;;;;17.41;48.52;102140.13;5051064;28;45348;-75
2023/09/30 07:14:49;;;;;;;;;9.00;8.00;;;;;17.45;48.21;102133.81;5061365;28;45230;-74
2023/09/30 07:17:14;;;;;;;;;8.25;7.75;;;;;17.44;47.78;102133.88;5061219;28;45488;-74
2023/09/30 07:19:40;;;;;;;;;7.25;7.25;;;;;17.47;47.92;102133.78;5042632;28;47253;-74
2023/09/30 07:22:05;;;;;;;;;11.75;7.25;;;;;17.50;48.27;102139.91;5061189;28;45280;-74
2023/09/30 07:24:31;;;;;;;;;9.75;9.75;;;;;17.53;48.23;102144.28;5061150;28;45298;-73
2023/09/30 07:26:56;;;;;;;;;4.50;3.25;;;;;17.54;48.18;102143.38;5060804;28;45558;-74
2023/09/30 07:29:21;;;;;;;;;9.50;7.75;;;;;17.54;48.26;102141.59;5060996;28;54688;-74
2023/09/30 07:31:46;;;;;;;;;8.50;7.00;;;;;17.53;48.18;102139.88;5042236;28;45629;-75
2023/09/30 07:34:12;;;;;;;;;6.50;6.00;;;;;17.59;48.26;102138.84;5061189;28;45205;-74
2023/09/30 07:36:37;;;;;;;;;7.00;7.00;;;;;17.61;48.13;102136.16;5061023;28;45214;-75
2023/09/30 07:39:05;;;;;;;;;6.50;6.50;;;;;17.63;48.11;102134.34;5060959;28;45787;-75
2023/09/30 07:41:36;;;;;;;;;10.00;7.75;;;;;17.67;48.30;102130.69;5060593;28;45403;-70
2023/09/30 07:44:03;;;;;;;;;9.50;8.25;;;;;17.71;48.35;102137.72;5060989;28;45257;-73
2023/09/30 07:46:28;;;;;;;;;11.00;8.50;;;;;17.75;48.67;102135.84;5048937;28;45534;-74
2023/09/30 07:48:55;;;;;;;;;7.25;7.00;;;;;17.78;48.47;102136.66;5060506;28;45964;-74
2023/09/30 07:51:20;;;;;;;;;9.25;7.25;;;;;17.81;48.36;102131.28;5060612;28;45367;-75
2023/09/30 07:53:45;;;;;;;;;12.00;6.50;;;;;17.85;48.57;102132.09;5056357;28;45312;-72
2023/09/30 07:56:11;;;;;;;;;7.75;5.00;;;;;17.86;48.47;102120.53;5060173;28;45369;-74
2023/09/30 07:58:36;;;;;;;;;10.00;7.75;;;;;17.93;48.41;102140.75;5058837;28;45450;-75
2023/09/30 08:01:04;;;;;;;;;7.00;7.00;;;;;17.96;48.22;102135.41;5060778;28;45320;-75
2023/09/30 08:03:29;;;;;;;;;6.75;6.00;;;;;18.03;48.44;102144.13;5059646;28;45449;-75
2023/09/30 08:05:54;;;;;;;;;8.25;7.00;;;;;18.01;48.67;102130.84;5036557;28;45563;-75
2023/09/30 08:08:20;;;;;;;;;5.50;5.50;;;;;18.11;48.57;102143.94;5055007;28;45417;-75
2023/09/30 08:10:45;;;;;;;;;7.00;6.00;;;;;18.18;48.41;102146.41;5041170;28;45960;-75
2023/09/30 08:13:10;;;;;;;;;5.50;4.25;;;;;18.24;48.91;102148.06;5059916;28;45321;-75
2023/09/30 08:15:36;;;;;;;;;5.25;3.00;;;;;18.29;48.30;102147.97;5059827;28;50995;-74
2023/09/30 08:18:04;;;;;;;;;6.00;5.00;;;;;18.33;48.81;102152.28;5060169;28;45567;-75
2023/09/30 08:20:30;;;;;;;;;8.00;4.75;;;;;18.40;48.50;102158.31;5060124;28;45380;-75
2023/09/30 08:22:55;;;;;;;;;5.75;5.75;;;;;18.45;48.75;102165.28;5060299;28;45300;-75
2023/09/30 08:25:20;;;;;;;;;6.00;3.75;;;;;18.50;48.69;102163.38;5059345;28;52772;-76
2023/09/30 08:27:49;;;;;;;;;5.00;5.00;;;;;18.57;48.59;102163.22;5060130;28;45438;-76
2023/09/30 08:30:15;;;;;;;;;7.75;6.75;;;;;18.57;48.89;102158.78;5060190;28;45266;-75
2023/09/30 08:32:40;;;;;;;;;6.25;4.25;;;;;18.69;48.59;102170.88;5060214;28;45313;-75
2023/09/30 08:35:07;;;;;;;;;3.75;3.75;;;;;18.77;48.64;102178.69;5059994;28;45520;-76
2023/09/30 08:37:32;;;;;;;;;5.75;4.25;;;;;18.82;48.73;102177.66;5058692;28;47329;-75
2023/09/30 08:39:58;;;;;;;;;7.00;5.50;;;;;18.86;48.61;102174.91;5059651;28;45265;-75
2023/09/30 08:42:29;;;;;;;;;6.75;5.00;;;;;18.95;48.69;102164.91;5060192;28;45398;-75
2023/09/30 08:44:55;;;;;;;;;2.25;2.00;;;;;19.02;49.02;102160.31;5064190;28;45218;-75
2023/09/30 08:47:22;;;;;;;;;3.25;3.25;;;;;19.11;48.74;102160.03;5060967;28;46642;-74
2023/09/30 08:49:48;;;;;;;;;3.50;2.75;;;;;19.19;49.05;102169.63;5058738;28;45613;-75
2023/09/30 08:52:14;;;;;;;;;5.50;4.50;;;;;19.19;48.73;102154.50;5041847;28;45371;-74
2023/09/30 08:54:40;;;;;;;;;8.25;4.00;;;;;19.35;48.53;102170.94;5054434;28;45459;-74
2023/09/30 08:57:09;;;;;;;;;6.75;5.25;;;;;19.44;49.01;102176.00;5056918;28;46223;-74
2023/09/30 08:59:35;;;;;;;;;8.25;6.25;;;;;19.52;48.57;102183.78;5059937;28;45218;-75
2023/09/30 09:02:01;;;;;;;;;8.00;6.50;;;;;19.56;48.67;102177.44;5041682;28;45329;-75
2023/09/30 09:04:27;;;;;;;;;5.25;5.25;;;;;19.64;48.82;102171.88;5041664;28;45410;-74
2023/09/30 09:06:55;;;;;;;;;6.50;5.50;;;;;19.76;48.52;102182.19;5059712;28;45443;-75
2023/09/30 09:09:22;;;;;;;;;4.25;4.25;;;;;19.83;48.57;102180.22;5059534;28;45398;-75
2023/09/30 09:11:47;;;;;;;;;6.25;3.50;;;;;19.86;48.86;102177.50;5059376;28;45243;-75
2023/09/30 09:14:13;;;;;;;;;6.75;4.75;;;;;20.01;48.86;102188.59;5059732;28;45232;-73
2023/09/30 09:16:52;;;;;;;;;6.75;5.25;;;;;20.10;48.39;102188.28;5041438;28;49956;-73
2023/09/30 09:19:18;;;;;;;;;8.75;6.00;;;;;20.17;49.03;102194.34;5060882;28;45459;-74
2023/09/30 09:22:00;;;;;;;;;3.00;3.00;;;;;20.23;48.52;102194.13;5063238;28;45262;-73
2023/09/30 09:24:34;;;;;;;;;5.00;4.50;;;;;20.32;48.81;102193.84;5063017;28;45288;-74
2023/09/30 09:27:06;;;;;;;;;5.00;5.00;;;;;20.39;48.93;102189.16;5062504;28;45415;-74
2023/09/30 09:29:32;;;;;;;;;5.75;5.25;;;;;20.43;48.39;102169.47;5044698;28;45462;-73
2023/09/30 09:32:14;;;;;;;;;5.25;4.25;;;;;20.55;48.20;102160.16;5063115;28;45328;-73
2023/09/30 09:34:43;;;;;;;;;7.25;5.00;;;;;20.60;48.22;102155.53;5044598;28;45882;-74
2023/09/30 09:37:19;;;;;;;;;5.00;4.00;;;;;20.69;48.25;102157.91;5044994;28;45595;-73
2023/09/30 09:39:56;;;;;;;;;5.50;5.00;;;;;20.80;48.70;102162.03;5062898;28;45182;-75
2023/09/30 09:42:29;;;;;;;;;6.25;5.00;;;;;20.91;48.59;102159.84;5044642;28;45435;-75
2023/09/30 09:44:59;;;;;;;;;8.00;4.00;;;;;20.98;48.66;102164.06;5062476;28;45535;-75
2023/09/30 09:47:26;;;;;;;;;6.75;5.00;;;;;21.12;48.46;102171.59;5062392;28;45445;-76
2023/09/30 09:49:52;;;;;;;;;4.67;4.33;;;;;21.22;48.50;102170.31;5062613;28;45383;-76
2023/09/30 09:52:19;;;;;;;;;3.00;3.00;;;;;21.36;48.69;102180.50;5062629;28;45182;-76
2023/09/30 09:54:48;;;;;;;;;5.33;4.33;;;;;21.48;48.65;102178.28;5049169;28;45571;-76
2023/09/30 09:57:15;;;;;;;;;2.67;2.67;;;;;21.55;48.45;102170.00;5059991;28;45379;-76
2023/09/30 09:59:42;;;;;;;;;3.00;3.00;;;;;21.70;48.39;102171.22;5062443;28;45262;-75
2023/09/30 10:02:14;;;;;;;;;5.75;5.00;;;;;21.80;48.36;102170.88;5062398;28;45492;-75
2023/09/30 10:04:42;;;;;;;;;5.33;4.67;;;;;21.95;48.41;102172.06;5062483;28;45388;-75
2023/09/30 10:07:13;;;;;;;;;6.25;5.50;;;;;22.04;48.55;102175.25;5062357;28;45387;-75
2023/09/30 10:09:41;;;;;;;;;6.00;4.00;;;;;22.16;48.50;102170.34;5041457;28;45788;-75
2023/09/30 10:12:08;;;;;;;;;4.33;4.33;;;;;22.28;48.69;102175.19;5062157;28;45518;-75
2023/09/30 10:14:35;;;;;;;;;4.00;4.00;;;;;22.36;48.25;102157.03;5044028;28;45708;-75
2023/09/30 10:17:01;;;;;;;;;2.67;2.67;;;;;22.50;48.00;102155.59;5062135;28;47437;-75
2023/09/30 10:19:29;;;;;;;;;3.67;3.67;;;;;22.60;48.50;102143.53;5062086;28;45252;-75
2023/09/30 10:22:19;;;;;;;;;4.00;4.00;;;;;22.79;48.14;102138.28;5062589;28;45416;-75
2023/09/30 10:24:48;;;;;;;;;3.67;3.00;;;;;22.94;48.00;102134.03;5061921;28;45320;-75
2023/09/30 10:27:32;;;;;;;;;3.00;3.00;;;;;23.08;48.22;102133.44;5043391;28;46547;-73
2023/09/30 10:30:11;;;;;;;;;2.67;2.00;;;;;23.24;48.28;102132.75;5061863;28;45335;-73
2023/09/30 10:32:52;;;;;;;;;4.33;3.33;;;;;23.39;47.99;102139.22;5061596;28;45462;-73
2023/09/30 10:35:41;;;;;;;;;6.67;4.33;;;;;23.49;48.20;102129.81;5061793;28;45308;-73
2023/09/30 10:38:22;;;;;;;;;3.00;3.00;;;;;23.70;47.56;102133.28;5061866;28;48093;-75
2023/09/30 10:40:50;;;;;;;;;4.00;3.67;;;;;23.84;47.83;102149.59;5061322;28;45332;-75
2023/09/30 10:43:36;;;;;;;;;4.67;4.00;;;;;23.99;47.64;102139.94;5062040;28;45368;-75
2023/09/30 10:46:06;;;;;;;;;4.00;4.00;;;;;24.14;47.68;102132.09;5068528;28;45389;-75
2023/09/30 10:48:34;;;;;;;;;4.67;4.67;;;;;24.29;47.77;102125.09;5042740;28;47985;-75
2023/09/30 10:51:01;;;;;;;;;5.67;5.00;;;;;24.45;47.56;102119.78;5061884;28;45345;-76
2023/09/30 10:53:28;;;;;;;;;3.67;3.67;;;;;24.62;47.53;102124.31;5057239;28;45499;-73
2023/09/30 10:55:58;;;;;;;;;6.00;5.00;;;;;24.77;46.98;102125.38;5060351;28;45452;-77
2023/09/30 10:58:47;;;;;;;;;5.67;3.33;;;;;24.98;46.84;102129.59;5059840;28;45552;-74
2023/09/30 11:01:14;;;;;;;;;7.00;5.75;;;;;25.12;46.59;102126.16;5061517;28;45265;-75
2023/09/30 11:03:43;;;;;;;;;6.50;4.25;;;;;25.29;46.64;102130.59;5061512;28;45336;-75
2023/09/30 11:06:21;;;;;;;;;4.67;4.33;;;;;25.45;46.36;102116.38;5061506;28;45540;-76
2023/09/30 11:08:58;;;;;;;;;5.25;4.50;;;;;25.66;46.23;102119.69;5061458;28;45339;-77
2023/09/30 11:11:44;;;;;;;;;9.75;7.25;;;;;25.84;46.44;102112.38;5061019;28;45178;-76
2023/09/30 11:14:30;;;;;;;;;7.00;6.00;;;;;26.06;46.82;102120.09;5061497;28;45328;-77
2023/09/30 11:17:01;;;;;;;;;7.00;6.00;;;;;26.22;46.16;102111.13;5061419;28;45193;-76
2023/09/30 11:19:45;;;;;;;;;6.50;4.00;;;;;26.46;46.71;102105.22;5061136;28;45647;-77
2023/09/30 11:22:11;;;;;;;;;8.25;4.25;;;;;26.66;46.30;102098.63;5042507;28;45500;-76